Keswick, Canada
Current Conditions -  °F | °C
As of 5:00 AM on Friday 19 Dec 2014 (Local Time) from CYBN Reporting Station
Overcast Overcast  
Wind Chill: 10°   Ceiling: 1000
Heat Index: 19°   Visibility: 9mi
Dew Point: 16°   Wind: 7mph
Humidity: 86%   Direction: 360°N
Pressure: 30.13"   Gusts: NA
Location:  44.24°N, 79.47°W
Report Text: CYBN 191000Z AUTO 36006KT 9SM OVC010 M07/M09 A3013 RMK SLP218
Loading
Personal Weather Stations






























Interactive Weather Map New forecast layout! Learn more

10-Day Weather Forecast

Advertisements
Track Severe Weather on mobile